Lee Center, New York
Current Conditions -  °F | °C
As of 1:25 PM on Friday 28 Nov 2014 (Local Time) from KRME Reporting Station
Light Snow Light Snow  
Wind Chill: 13°   Ceiling: 3300
Heat Index: 25°   Visibility: 2mi
Dew Point: 21°   Wind: 15mph
Humidity: 85%   Direction: 250°WSW
Pressure: 30.18"   Gusts: NA
Location:  43.3°N, 75.52°W
Report Text: KRME 281825Z AUTO 25013KT 2SM -SN BR FEW020 BKN033 OVC060 M04/M06 A3018 RMK AO2 UPE00SNB06 P0000 T10391061
Loading
Personal Weather Stations






























Interactive Weather Map New forecast layout! Learn more

10-Day Weather Forecast

Advertisements
Track Severe Weather on mobile